YBWP

Details ICAO YBWP (WEI)
Name Weipa
Region Australia
Timezone Australia/Brisbane (UTC+10.0)
Plans Departing 4
Arriving 11
Stats Elevation 63 ft / 19 m (AMSL)
Location -12.677403° 141.922386°
Runways 1
Magnetic Variation 5.124° E
Sunrise 2017-12-13 20:02:21 UTC / 2017-12-14 06:02:21 Local
Sunset 2017-12-14 08:54:04 UTC / 2017-12-14 18:54:04 Local
Advertisement - Login to hide

Runways

ID Width Length Bearing (true) Bearing (mag) Surface Threshold Offset Overrun Length
12 98 ft / 30 m 5,404 ft / 1,647 m 124.40° 119.28° Asphalt 0 ft / 0 m 0 ft / 0 m
30 98 ft / 30 m 5,404 ft / 1,647 m 304.40° 299.28° Asphalt 0 ft / 0 m 0 ft / 0 m

Map

Weather


0- 5 10 15 20 25 30 35+ Temperature / ° C

Clouds and Precipitation
Forecast for 2017-12-13 18:00 UTC. Updated an hour ago

Ground ~20,000 ft ~40,000 ft Winds

METAR

YBWP 131800Z AUTO 00000KT 9999 // NCD 25/23 Q1008

TAF

Not found

Frequencies

Unicom 126.70 MHz CTAF
Warning: Do not use this data for real-world aviation or navigation. No guarantee of current accuracy is given.